Latest Weather Observations for Bulman

IDD60801

Issued at 3:51 pm CST Wednesday 28 September 2022 (issued every 10 minutes, with the page automatically refreshed every 10 minutes)

About weather observations | Map of weather stations | Latest weather observations for NT | Other Formats
Station Details ID: 014627 Name: BULMAN Lat: -13.67 Lon: 134.34 Height: 103.4 m
Data from the previous 72 hours. | See also: Recent months at Bulman
Date/Time
CST
Temp
°C
App
Temp
°C
Dew
Point
°C
Rel
Hum
%
Delta-T
°C
Wind Press
QNH
hPa
Press
MSL
hPa
Rain since
9am
mm
Dir  Spd
km/h
Gust
km/h
Spd
kts
Gust
kts
28/03:30pm 30.2 29.3 20.7 56 6.3 ESE 26 44 14 24 1008.2 1007.5 0.8
28/03:00pm 30.0 28.8 22.2 63 5.3 ESE 32 46 17 25 1008.2 1007.5 0.8
28/02:43pm 29.6 29.9 22.3 65 5.0 ESE 24 44 13 24 1008.1 1007.4 0.8
28/02:30pm 30.8 33.9 22.1 59 5.9 ESE 9 24 5 13 1007.9 1007.2 0.8
28/02:00pm 33.4 34.1 20.5 46 8.7 ESE 17 33 9 18 1008.0 1007.3 0.0
28/01:30pm 35.1 35.9 19.1 39 10.6 ESE 13 17 7 9 1008.2 1007.5 0.0
28/01:00pm 36.2 38.0 19.6 37 11.1 ENE 9 20 5 11 1008.6 1007.9 0.0
28/12:30pm 35.0 36.9 19.8 41 10.2 ESE 9 17 5 9 1009.3 1008.6 0.0
28/12:00pm 34.1 36.7 20.1 43 9.4 N 6 11 3 6 1009.9 1009.3 0.0
28/11:30am 33.7 36.3 20.1 44 9.1 E 6 13 3 7 1010.6 1010.0 0.0
28/11:00am 33.3 36.2 21.1 48 8.2 NNE 7 13 4 7 1011.2 1010.6 0.0
28/10:30am 31.7 34.9 21.2 53 7.1 SE 6 11 3 6 1011.8 1011.2 0.0
28/10:00am 29.5 33.2 21.4 61 5.4 N 4 9 2 5 1012.2 1011.6 0.0
28/09:30am 29.9 33.1 21.6 61 5.6 ESE 7 13 4 7 1012.6 1012.0 0.0
28/09:00am 28.6 31.6 20.9 63 5.1 S 6 9 3 5 1012.9 1012.3 0.0
28/08:30am 27.9 30.1 20.5 64 4.9 SSW 9 11 5 6 1012.8 1012.2 0.0
28/08:00am 27.0 29.2 20.3 66 4.4 S 9 11 5 6 1012.4 1011.8 0.0
28/07:30am 26.4 28.6 20.5 70 3.9 S 9 13 5 7 1012.0 1011.4 0.0
28/07:00am 24.9 28.8 20.4 76 2.9 CALM 0 6 0 3 1011.4 1010.8 0.0
28/06:30am 23.9 27.6 20.0 79 2.5 CALM 0 0 0 0 1010.9 1010.3 0.0
28/06:00am 24.0 26.9 19.9 78 2.7 SSW 4 6 2 3 1010.4 1009.8 0.0
28/05:30am 24.0 27.3 19.9 78 2.7 SW 2 6 1 3 1010.1 1009.5 0.0
28/05:00am 24.0 27.8 20.1 79 2.5 CALM 0 0 0 0 1009.6 1008.9 0.0
28/04:30am 24.0 27.7 19.9 78 2.7 CALM 0 0 0 0 1009.1 1008.4 0.0
28/04:00am 24.2 27.9 19.9 77 2.8 CALM 0 2 0 1 1008.9 1008.2 0.0
28/03:30am 24.2 28.0 20.1 78 2.7 CALM 0 0 0 0 1009.0 1008.3 0.0
28/03:00am 24.5 28.2 20.0 76 2.9 CALM 0 0 0 0 1009.0 1008.3 0.0
28/02:30am 25.0 28.3 20.0 74 3.3 NNE 2 7 1 4 1009.0 1008.3 0.0
28/02:00am 25.2 27.8 20.0 73 3.4 NNW 6 7 3 4 1009.0 1008.3 0.0
28/01:30am 25.5 28.1 20.1 72 3.5 NW 6 9 3 5 1009.4 1008.7 0.0
28/01:00am 25.7 28.4 20.3 72 3.5 NNW 6 9 3 5 1009.4 1008.7 0.0
28/12:30am 25.6 28.2 20.4 73 3.4 NNW 7 11 4 6 1009.8 1009.2 0.0
28/12:00am 25.4 28.5 20.2 73 3.4 NNW 4 9 2 5 1010.1 1009.5 0.0
 
Date/Time
CST
Temp
°C
App
Temp
°C
Dew
Point
°C
Rel
Hum
%
Delta-T
°C
Wind Press
QNH
hPa
Press
MSL
hPa
Rain since
9am
mm
Dir  Spd
km/h
Gust
km/h
Spd
kts
Gust
kts
27/11:30pm 25.5 28.5 20.1 72 3.5 NNW 4 7 2 4 1010.3 1009.7 0.0
27/11:00pm 25.9 28.3 20.0 70 3.8 N 7 13 4 7 1010.3 1009.7 0.0
27/10:30pm 26.0 28.5 19.9 69 4.0 N 6 9 3 5 1010.6 1010.0 0.0
27/10:00pm 26.4 29.0 20.0 68 4.2 N 6 11 3 6 1010.8 1010.2 0.0
27/09:30pm 26.9 28.9 20.0 66 4.5 NNE 9 13 5 7 1010.7 1010.1 0.0
27/09:00pm 27.1 29.5 20.0 65 4.7 NNE 7 11 4 6 1010.6 1010.0 0.0
27/08:30pm 27.1 28.7 20.0 65 4.7 N 11 15 6 8 1010.7 1010.1 0.0
27/08:00pm 27.3 29.4 20.1 64 4.7 NE 9 15 5 8 1010.5 1009.9 0.0
27/07:30pm 27.4 29.5 20.2 65 4.7 NE 9 13 5 7 1010.5 1009.9 0.0
27/07:00pm 27.6 28.8 19.9 63 5.0 NE 13 24 7 13 1010.4 1009.8 0.0
27/06:30pm 28.2 29.1 20.0 61 5.4 NNE 15 28 8 15 1009.9 1009.3 0.0
27/06:00pm 28.3 29.5 20.6 63 5.1 NE 15 24 8 13 1009.5 1008.8 0.0
27/05:30pm 28.1 27.8 21.1 65 4.7 NNE 24 35 13 19 1008.9 1008.2 0.0
27/05:00pm 28.8 28.2 21.3 64 5.0 NNE 26 41 14 22 1008.2 1007.5 0.0
27/04:33pm 30.6 29.7 21.4 58 6.2 NE 28 46 15 25 1007.4 1006.7 0.0
27/04:30pm 31.2 29.8 21.1 55 6.8 NE 30 46 16 25 1007.3 1006.6 0.0
27/04:20pm 32.7 32.7 20.2 47 8.3 NE 20 48 11 26 1006.8 1006.1 0.0
27/04:17pm 34.7 34.8 18.3 38 10.7 NE 15 48 8 26 1006.5 1005.8 0.0
27/04:00pm 37.9 38.5 16.8 29 13.6 ESE 9 15 5 8 1005.9 1005.3 0.0
27/03:30pm 37.3 37.1 16.8 29 13.3 ENE 13 20 7 11 1005.8 1005.2 0.0
27/03:00pm 36.4 35.2 17.0 31 12.6 E 19 30 10 16 1006.2 1005.6 0.0
27/02:30pm 37.8 38.7 16.7 28 13.7 NW 7 20 4 11 1006.2 1005.6 0.0
27/02:00pm 37.4 37.7 16.9 30 13.3 E 11 19 6 10 1006.8 1006.1 0.0
27/01:30pm 37.1 37.8 17.1 30 13.0 NE 9 20 5 11 1007.6 1006.9 0.0
27/01:00pm 36.1 37.1 17.7 33 12.0 NW 9 19 5 10 1008.5 1007.8 0.0
27/12:30pm 35.3 35.8 18.4 37 11.1 N 13 20 7 11 1009.0 1008.3 0.0
27/12:00pm 34.6 36.3 18.6 38 10.5 N 7 20 4 11 1009.4 1008.7 0.0
27/11:30am 34.4 35.0 17.6 36 10.9 NE 11 19 6 10 1010.0 1009.4 0.0
27/11:00am 34.9 36.4 18.9 39 10.5 N 9 20 5 11 1010.3 1009.7 0.0
27/10:30am 33.7 35.6 18.6 40 9.9 ESE 6 11 3 6 1010.6 1010.0 0.0
27/10:00am 32.5 34.6 19.4 46 8.6 NE 7 15 4 8 1010.7 1010.1 0.0
27/09:30am 31.4 33.5 19.4 49 7.9 N 7 11 4 6 1010.9 1010.3 0.0
27/09:00am 30.9 33.1 20.5 54 6.9 NW 9 17 5 9 1011.0 1010.4 0.0
27/08:30am 29.7 31.9 21.1 60 5.8 NW 11 17 6 9 1010.7 1010.1 0.0
27/08:00am 27.4 30.2 20.5 66 4.6 NNW 6 9 3 5 1010.1 1009.5 0.0
27/07:30am 26.4 29.3 19.8 67 4.3 NW 4 7 2 4 1010.0 1009.4 0.0
27/07:00am 24.5 27.2 17.7 66 4.3 CALM 0 0 0 0 1009.6 1008.9 0.0
27/06:30am 23.6 25.4 15.6 61 4.8 CALM 0 0 0 0 1009.5 1008.8 0.0
27/06:00am 24.1 25.3 15.9 60 5.0 SSW 4 9 2 5 1009.4 1008.7 0.0
27/05:30am 23.8 25.6 15.6 60 5.0 CALM 0 0 0 0 1009.1 1008.4 0.0
27/05:00am 23.4 25.3 15.7 62 4.7 CALM 0 0 0 0 1009.0 1008.3 0.0
27/04:30am 23.5 25.3 15.5 60 4.8 CALM 0 0 0 0 1009.0 1008.3 0.0
27/04:00am 24.3 26.0 15.2 57 5.5 CALM 0 0 0 0 1008.8 1008.1 0.0
27/03:30am 24.7 26.4 15.1 55 5.8 CALM 0 0 0 0 1008.9 1008.2 0.0
27/03:00am 25.3 27.0 15.3 54 6.1 CALM 0 0 0 0 1008.8 1008.1 0.0
27/02:30am 25.8 27.6 15.5 53 6.3 CALM 0 0 0 0 1009.1 1008.4 0.0
27/02:00am 26.4 28.2 15.4 50 6.7 CALM 0 0 0 0 1009.2 1008.5 0.0
27/01:30am 27.1 28.8 15.1 47 7.3 CALM 0 0 0 0 1009.3 1008.6 0.0
27/01:00am 28.1 29.8 15.1 45 7.9 CALM 0 6 0 3 1009.6 1008.9 0.0
27/12:30am 28.8 29.8 15.3 43 8.3 ENE 4 7 2 4 1010.0 1009.4 0.0
27/12:00am 29.4 29.7 15.1 41 8.8 ENE 7 11 4 6 1010.1 1009.5 0.0
 
Date/Time
CST
Temp
°C
App
Temp
°C
Dew
Point
°C
Rel
Hum
%
Delta-T
°C
Wind Press
QNH
hPa
Press
MSL
hPa
Rain since
9am
mm
Dir  Spd
km/h
Gust
km/h
Spd
kts
Gust
kts
26/11:30pm 29.7 30.0 15.0 40 9.0 E 7 13 4 7 1010.2 1009.6 0.0
26/11:00pm 30.1 30.5 15.4 41 9.1 E 7 11 4 6 1010.3 1009.7 0.0
26/10:30pm 30.6 30.7 15.5 40 9.4 ENE 9 13 5 7 1010.3 1009.7 0.0
26/10:00pm 31.1 31.2 15.5 39 9.7 NNE 9 15 5 8 1010.0 1009.4 0.0
26/09:30pm 31.7 30.3 15.6 37 10.0 ENE 17 24 9 13 1009.8 1009.2 0.0
26/09:00pm 32.2 31.4 16.1 38 10.1 ENE 15 22 8 12 1009.2 1008.5 0.0
26/08:30pm 32.9 32.4 15.8 35 10.7 ENE 13 20 7 11 1008.9 1008.2 0.0
26/08:00pm 33.8 32.3 15.3 33 11.6 E 17 22 9 12 1008.2 1007.5 0.0
26/07:30pm 34.5 33.5 12.2 26 13.4 E 9 15 5 8 1007.6 1006.9 0.0
26/07:00pm 35.3 33.5 11.0 23 14.3 E 11 17 6 9 1007.1 1006.4 0.0
26/06:30pm 36.0 33.8 10.9 22 14.9 E 13 20 7 11 1006.8 1006.1 0.0
26/06:00pm 37.0 34.3 10.3 20 15.7 ENE 15 24 8 13 1006.4 1005.7 0.0
26/05:30pm 37.5 35.3 10.7 20 15.9 ENE 13 19 7 10 1005.9 1005.3 0.0
26/05:00pm 38.4 36.4 11.5 20 16.2 E 13 24 7 13 1005.8 1005.2 0.0
26/04:30pm 38.9 36.8 11.1 19 16.7 E 13 20 7 11 1005.6 1005.0 0.0
26/04:00pm 38.9 37.0 11.9 20 16.4 E 13 22 7 12 1005.5 1004.9 0.0
26/03:30pm 38.7 38.0 13.2 22 15.8 NE 9 17 5 9 1005.7 1005.1 0.0
26/03:00pm 38.5 37.6 13.7 23 15.4 E 11 19 6 10 1006.1 1005.5 0.0
26/02:30pm 38.6 37.3 13.8 23 15.5 E 13 24 7 13 1006.7 1006.0 0.0
26/02:00pm 39.0 38.8 14.7 23 15.3 E 9 22 5 12 1007.0 1006.3 0.0
26/01:30pm 38.0 37.0 14.5 24 14.8 NW 13 28 7 15 1007.5 1006.8 0.0
26/01:00pm 36.9 35.8 15.4 28 13.6 ENE 15 26 8 14 1008.0 1007.3 0.0
26/12:30pm 36.9 35.8 15.4 28 13.6 NE 15 22 8 12 1008.6 1007.9 0.0
26/12:00pm 36.4 35.6 16.0 29 13.0 ENE 15 28 8 15 1009.4 1008.7 0.0
26/11:30am 35.6 35.1 16.8 32 12.1 NE 15 28 8 15 1010.0 1009.4 0.0
26/11:00am 35.6 36.0 18.2 35 11.4 NE 13 24 7 13 1010.6 1010.0 0.0
26/10:30am 33.0 34.4 19.5 45 8.9 NNE 11 24 6 13 1011.0 1010.4 0.0
26/10:00am 32.3 34.5 20.5 49 7.9 N 9 19 5 10 1011.3 1010.7 0.0
26/09:30am 30.9 33.3 20.8 55 6.8 NNW 9 15 5 8 1011.4 1010.8 0.0
26/09:00am 29.5 31.3 21.2 61 5.6 NW 13 17 7 9 1011.5 1010.9 0.0
26/08:30am 28.2 29.9 21.0 65 4.8 NW 13 17 7 9 1011.2 1010.6 0.0
26/08:00am 26.9 28.8 20.5 68 4.2 NW 11 13 6 7 1011.1 1010.5 0.0
26/07:30am 25.0 27.3 19.8 73 3.4 N 7 11 4 6 1010.8 1010.2 0.0
26/07:00am 22.9 25.4 19.9 83 1.9 N 6 7 3 4 1010.4 1009.8 0.0
26/06:30am 20.9 23.6 17.7 82 2.0 CALM 0 0 0 0 1010.1 1009.5 0.0
26/06:00am 21.0 23.4 17.0 78 2.5 CALM 0 0 0 0 1009.7 1009.0 0.0
26/05:30am 21.4 24.0 17.6 79 2.4 CALM 0 0 0 0 1009.4 1008.7 0.0
26/05:00am 22.1 24.7 17.5 75 2.9 CALM 0 0 0 0 1009.1 1008.4 0.0
26/04:30am 22.5 25.0 17.2 72 3.3 CALM 0 0 0 0 1008.8 1008.1 0.0
26/04:00am 23.1 25.6 17.3 70 3.6 CALM 0 0 0 0 1008.8 1008.1 0.0
26/03:30am 23.8 25.2 17.3 67 4.0 NNW 6 7 3 4 1008.9 1008.2 0.0
26/03:00am 24.5 26.6 18.9 71 3.6 NNW 6 7 3 4 1009.2 1008.5 0.0
26/02:30am 24.0 25.2 16.8 64 4.5 NNW 6 7 3 4 1009.5 1008.8 0.0
26/02:00am 24.8 26.8 16.0 58 5.4 CALM 0 0 0 0 1009.7 1009.0 0.0
26/01:30am 25.7 26.4 15.7 54 6.1 NNW 6 7 3 4 1010.2 1009.6 0.0
26/01:00am 26.7 28.6 15.7 51 6.7 CALM 0 0 0 0 1010.5 1009.9 0.0
26/12:30am 27.8 29.2 16.4 50 7.1 NNE 4 7 2 4 1010.8 1010.2 0.0
26/12:00am 29.0 30.1 16.5 46 7.8 NE 6 9 3 5 1011.0 1010.4 0.0
 
Date/Time
CST
Temp
°C
App
Temp
°C
Dew
Point
°C
Rel
Hum
%
Delta-T
°C
Wind Press
QNH
hPa
Press
MSL
hPa
Rain since
9am
mm
Dir  Spd
km/h
Gust
km/h
Spd
kts
Gust
kts
25/11:30pm 29.4 30.3 16.2 44 8.2 NE 6 11 3 6 1011.3 1010.7 0.0
25/11:00pm 30.1 30.8 16.1 42 8.7 NE 7 13 4 7 1011.3 1010.7 0.0
25/10:30pm 30.5 31.1 15.8 41 9.2 NE 7 11 4 6 1011.2 1010.6 0.0
25/10:00pm 31.2 31.5 16.0 40 9.5 NE 9 15 5 8 1010.9 1010.3 0.0
25/09:30pm 31.6 31.9 17.1 41 9.2 ENE 11 17 6 9 1010.5 1009.9 0.0
25/09:00pm 32.0 32.2 16.7 40 9.7 E 11 20 6 11 1009.8 1009.2 0.0
25/08:30pm 32.6 32.0 15.6 36 10.6 ESE 13 19 7 10 1009.1 1008.4 0.0
25/08:00pm 31.8 31.7 12.1 30 11.7 ESE 4 9 2 5 1008.4 1007.7 0.0
25/07:30pm 32.8 32.6 11.9 28 12.4 ESE 4 7 2 4 1007.9 1007.2 0.0
25/07:00pm 34.7 33.9 11.2 24 13.9 ESE 6 9 3 5 1007.4 1006.7 0.0
25/06:30pm 35.7 34.8 11.4 23 14.5 ESE 7 11 4 6 1007.0 1006.3 0.0
25/06:00pm 36.8 36.0 10.9 21 15.4 E 6 15 3 8 1006.7 1006.0 0.0
25/05:30pm 37.5 35.5 11.5 21 15.6 ENE 13 24 7 13 1006.5 1005.8 0.0
25/05:00pm 37.8 36.2 11.7 21 15.7 E 11 17 6 9 1006.2 1005.6 0.0
25/04:30pm 38.2 37.5 11.3 20 16.2 ENE 6 15 3 8 1006.2 1005.6 0.0
25/04:00pm 38.1 37.2 11.2 20 16.1 WNW 7 13 4 7 1006.4 1005.7 0.0

Other formats

Comma delimited format used in spreadsheet applications
http://www.bom.gov.au/fwo/IDD60801/IDD60801.94143.axf

JavaScript Object Notation format (JSON) in row-major order
http://www.bom.gov.au/fwo/IDD60801/IDD60801.94143.json

Data quality

Most of these data are generated automatically and are frequently updated. Quality checks on data are not normally performed. It is possible for incorrect values to appear. Refer to information at About Latest Weather Observations and please check the disclaimer before using these data.